sensor_id;sensor_type;location;lat;lon;timestamp;temperature;humidity
67133;HTU21D;54052;53.542;49.408;2023-02-01T00:00:25;-5.00;67.42
67133;HTU21D;54052;53.542;49.408;2023-02-01T00:02:51;-5.08;67.74
67133;HTU21D;54052;53.542;49.408;2023-02-01T00:05:17;-5.03;66.92
67133;HTU21D;54052;53.542;49.408;2023-02-01T00:07:47;-5.05;68.01
67133;HTU21D;54052;53.542;49.408;2023-02-01T00:10:14;-5.04;67.33
67133;HTU21D;54052;53.542;49.408;2023-02-01T00:12:40;-5.23;67.91
67133;HTU21D;54052;53.542;49.408;2023-02-01T00:15:07;-5.34;67.32
67133;HTU21D;54052;53.542;49.408;2023-02-01T00:17:33;-5.41;68.18
67133;HTU21D;54052;53.542;49.408;2023-02-01T00:20:00;-5.33;68.97
67133;HTU21D;54052;53.542;49.408;2023-02-01T00:22:26;-5.39;69.17
67133;HTU21D;54052;53.542;49.408;2023-02-01T00:24:52;-5.33;68.59
67133;HTU21D;54052;53.542;49.408;2023-02-01T00:27:18;-5.29;67.76
67133;HTU21D;54052;53.542;49.408;2023-02-01T00:29:47;-5.25;67.83
67133;HTU21D;54052;53.542;49.408;2023-02-01T00:32:13;-5.30;68.24
67133;HTU21D;54052;53.542;49.408;2023-02-01T00:34:39;-5.34;68.26
67133;HTU21D;54052;53.542;49.408;2023-02-01T00:37:06;-5.44;68.87
67133;HTU21D;54052;53.542;49.408;2023-02-01T00:39:32;-5.54;69.29
67133;HTU21D;54052;53.542;49.408;2023-02-01T00:42:00;-5.50;69.38
67133;HTU21D;54052;53.542;49.408;2023-02-01T00:44:27;-5.38;68.80
67133;HTU21D;54052;53.542;49.408;2023-02-01T00:46:53;-5.31;68.10
67133;HTU21D;54052;53.542;49.408;2023-02-01T00:49:19;-5.46;68.10
67133;HTU21D;54052;53.542;49.408;2023-02-01T00:51:46;-5.56;69.27
67133;HTU21D;54052;53.542;49.408;2023-02-01T00:54:12;-5.54;69.37
67133;HTU21D;54052;53.542;49.408;2023-02-01T00:56:39;-5.50;68.54
67133;HTU21D;54052;53.542;49.408;2023-02-01T00:59:05;-5.63;68.94
67133;HTU21D;54052;53.542;49.408;2023-02-01T01:01:31;-5.67;69.55
67133;HTU21D;54052;53.542;49.408;2023-02-01T01:03:59;-5.64;69.31
67133;HTU21D;54052;53.542;49.408;2023-02-01T01:06:28;-5.54;68.85
67133;HTU21D;54052;53.542;49.408;2023-02-01T01:08:57;-5.47;68.72
67133;HTU21D;54052;53.542;49.408;2023-02-01T01:11:26;-5.44;67.83
67133;HTU21D;54052;53.542;49.408;2023-02-01T01:13:55;-5.53;68.98
67133;HTU21D;54052;53.542;49.408;2023-02-01T01:16:23;-5.69;69.18
67133;HTU21D;54052;53.542;49.408;2023-02-01T01:18:50;-5.83;68.55
67133;HTU21D;54052;53.542;49.408;2023-02-01T01:21:17;-5.91;70.25
67133;HTU21D;54052;53.542;49.408;2023-02-01T01:23:45;-5.85;69.69
67133;HTU21D;54052;53.542;49.408;2023-02-01T01:26:18;-5.83;68.77
67133;HTU21D;54052;53.542;49.408;2023-02-01T01:28:45;-5.76;68.35
67133;HTU21D;54052;53.542;49.408;2023-02-01T01:31:13;-5.71;68.66
67133;HTU21D;54052;53.542;49.408;2023-02-01T01:33:39;-5.69;68.30
67133;HTU21D;54052;53.542;49.408;2023-02-01T01:36:07;-5.65;67.50
67133;HTU21D;54052;53.542;49.408;2023-02-01T01:38:40;-5.64;67.70
67133;HTU21D;54052;53.542;49.408;2023-02-01T01:41:08;-5.69;67.62
67133;HTU21D;54052;53.542;49.408;2023-02-01T01:44:02;-5.75;68.47
67133;HTU21D;54052;53.542;49.408;2023-02-01T01:46:31;-5.81;68.49
67133;HTU21D;54052;53.542;49.408;2023-02-01T01:51:38;-5.89;68.59
67133;HTU21D;54052;53.542;49.408;2023-02-01T01:54:14;-5.96;68.84
67133;HTU21D;54052;53.542;49.408;2023-02-01T01:56:43;-6.04;68.75
67133;HTU21D;54052;53.542;49.408;2023-02-01T01:59:12;-6.20;69.39
67133;HTU21D;54052;53.542;49.408;2023-02-01T02:01:38;-6.37;69.47
67133;HTU21D;54052;53.542;49.408;2023-02-01T02:04:05;-6.42;69.42
67133;HTU21D;54052;53.542;49.408;2023-02-01T02:06:54;-6.42;69.88
67133;HTU21D;54052;53.542;49.408;2023-02-01T02:09:22;-6.49;69.70
67133;HTU21D;54052;53.542;49.408;2023-02-01T02:11:49;-6.56;70.26
67133;HTU21D;54052;53.542;49.408;2023-02-01T02:14:17;-6.65;70.75
67133;HTU21D;54052;53.542;49.408;2023-02-01T02:22:40;-7.04;72.25
67133;HTU21D;54052;53.542;49.408;2023-02-01T02:30:44;-6.98;71.58
67133;HTU21D;54052;53.542;49.408;2023-02-01T02:36:30;-6.97;70.87
67133;HTU21D;54052;53.542;49.408;2023-02-01T02:42:01;-7.03;70.87
67133;HTU21D;54052;53.542;49.408;2023-02-01T02:44:54;-6.96;70.42
67133;HTU21D;54052;53.542;49.408;2023-02-01T02:50:34;-7.04;70.27
67133;HTU21D;54052;53.542;49.408;2023-02-01T02:53:32;-7.03;70.14
67133;HTU21D;54052;53.542;49.408;2023-02-01T02:56:21;-7.18;71.22
67133;HTU21D;54052;53.542;49.408;2023-02-01T02:59:09;-7.37;71.31
67133;HTU21D;54052;53.542;49.408;2023-02-01T03:01:54;-7.47;71.98
67133;HTU21D;54052;53.542;49.408;2023-02-01T03:04:39;-7.45;71.50
67133;HTU21D;54052;53.542;49.408;2023-02-01T03:13:43;-7.40;71.49
67133;HTU21D;54052;53.542;49.408;2023-02-01T03:16:24;-7.44;71.45
67133;HTU21D;54052;53.542;49.408;2023-02-01T03:22:03;-7.63;71.76
67133;HTU21D;54052;53.542;49.408;2023-02-01T03:24:45;-7.75;72.69
67133;HTU21D;54052;53.542;49.408;2023-02-01T03:29:54;-7.83;72.91
67133;HTU21D;54052;53.542;49.408;2023-02-01T03:32:22;-7.90;72.84
67133;HTU21D;54052;53.542;49.408;2023-02-01T03:34:50;-7.96;74.12
67133;HTU21D;54052;53.542;49.408;2023-02-01T03:37:23;-7.99;73.04
67133;HTU21D;54052;53.542;49.408;2023-02-01T03:42:35;-7.93;73.20
67133;HTU21D;54052;53.542;49.408;2023-02-01T03:45:43;-7.95;73.32
67133;HTU21D;54052;53.542;49.408;2023-02-01T03:48:02;-7.89;73.38
67133;HTU21D;54052;53.542;49.408;2023-02-01T03:50:30;-7.83;72.74
67133;HTU21D;54052;53.542;49.408;2023-02-01T03:53:02;-7.90;73.06
67133;HTU21D;54052;53.542;49.408;2023-02-01T03:55:30;-7.97;73.81
67133;HTU21D;54052;53.542;49.408;2023-02-01T04:00:31;-7.76;72.97
67133;HTU21D;54052;53.542;49.408;2023-02-01T04:02:57;-7.63;72.28
67133;HTU21D;54052;53.542;49.408;2023-02-01T04:05:24;-7.54;72.17
67133;HTU21D;54052;53.542;49.408;2023-02-01T04:07:50;-7.45;71.79
67133;HTU21D;54052;53.542;49.408;2023-02-01T04:10:16;-7.34;71.63
67133;HTU21D;54052;53.542;49.408;2023-02-01T04:12:43;-7.32;71.38
67133;HTU21D;54052;53.542;49.408;2023-02-01T04:15:09;-7.34;71.71
67133;HTU21D;54052;53.542;49.408;2023-02-01T04:17:36;-7.27;71.44
67133;HTU21D;54052;53.542;49.408;2023-02-01T04:20:02;-7.24;71.41
67133;HTU21D;54052;53.542;49.408;2023-02-01T04:22:30;-7.12;71.18
67133;HTU21D;54052;53.542;49.408;2023-02-01T04:24:57;-7.02;70.88
67133;HTU21D;54052;53.542;49.408;2023-02-01T04:27:23;-7.02;70.89
67133;HTU21D;54052;53.542;49.408;2023-02-01T04:29:50;-7.10;70.72
67133;HTU21D;54052;53.542;49.408;2023-02-01T04:32:16;-7.20;71.77
67133;HTU21D;54052;53.542;49.408;2023-02-01T04:34:43;-7.22;71.83
67133;HTU21D;54052;53.542;49.408;2023-02-01T04:37:09;-7.21;72.41
67133;HTU21D;54052;53.542;49.408;2023-02-01T04:39:36;-7.22;71.79
67133;HTU21D;54052;53.542;49.408;2023-02-01T04:42:02;-7.19;72.06
67133;HTU21D;54052;53.542;49.408;2023-02-01T04:44:29;-7.15;71.99
67133;HTU21D;54052;53.542;49.408;2023-02-01T04:46:55;-7.08;72.18
67133;HTU21D;54052;53.542;49.408;2023-02-01T04:49:21;-7.04;71.77
67133;HTU21D;54052;53.542;49.408;2023-02-01T04:51:48;-7.00;71.89
67133;HTU21D;54052;53.542;49.408;2023-02-01T04:54:14;-6.85;71.42
67133;HTU21D;54052;53.542;49.408;2023-02-01T04:56:40;-6.59;70.64
67133;HTU21D;54052;53.542;49.408;2023-02-01T04:59:06;-6.42;69.96
67133;HTU21D;54052;53.542;49.408;2023-02-01T05:01:33;-6.49;70.10
67133;HTU21D;54052;53.542;49.408;2023-02-01T05:03:59;-6.49;69.86
67133;HTU21D;54052;53.542;49.408;2023-02-01T05:06:25;-6.47;69.42
67133;HTU21D;54052;53.542;49.408;2023-02-01T05:08:51;-6.43;69.75
67133;HTU21D;54052;53.542;49.408;2023-02-01T05:11:18;-6.22;69.60
67133;HTU21D;54052;53.542;49.408;2023-02-01T05:14:02;-5.96;68.78
67133;HTU21D;54052;53.542;49.408;2023-02-01T05:16:28;-5.84;68.54
67133;HTU21D;54052;53.542;49.408;2023-02-01T05:18:55;-5.90;67.86
67133;HTU21D;54052;53.542;49.408;2023-02-01T05:21:21;-5.86;67.56
67133;HTU21D;54052;53.542;49.408;2023-02-01T05:23:48;-6.05;68.04
67133;HTU21D;54052;53.542;49.408;2023-02-01T05:26:33;-6.18;69.07
67133;HTU21D;54052;53.542;49.408;2023-02-01T05:28:59;-6.29;69.91
67133;HTU21D;54052;53.542;49.408;2023-02-01T05:31:25;-6.28;69.95
67133;HTU21D;54052;53.542;49.408;2023-02-01T05:33:52;-6.14;69.36
67133;HTU21D;54052;53.542;49.408;2023-02-01T05:36:18;-6.00;68.42
67133;HTU21D;54052;53.542;49.408;2023-02-01T05:38:44;-6.00;68.93
67133;HTU21D;54052;53.542;49.408;2023-02-01T05:41:10;-5.93;69.02
67133;HTU21D;54052;53.542;49.408;2023-02-01T05:43:37;-5.78;68.22
67133;HTU21D;54052;53.542;49.408;2023-02-01T05:46:03;-5.69;67.61
67133;HTU21D;54052;53.542;49.408;2023-02-01T05:48:29;-5.60;67.30
67133;HTU21D;54052;53.542;49.408;2023-02-01T05:50:56;-5.47;66.41
67133;HTU21D;54052;53.542;49.408;2023-02-01T05:53:22;-5.58;66.62
67133;HTU21D;54052;53.542;49.408;2023-02-01T05:55:48;-5.60;67.34
67133;HTU21D;54052;53.542;49.408;2023-02-01T05:58:15;-5.46;66.43
67133;HTU21D;54052;53.542;49.408;2023-02-01T06:00:41;-5.30;65.95
67133;HTU21D;54052;53.542;49.408;2023-02-01T06:03:07;-5.12;64.94
67133;HTU21D;54052;53.542;49.408;2023-02-01T06:05:34;-5.02;65.56
67133;HTU21D;54052;53.542;49.408;2023-02-01T06:08:00;-4.89;64.37
67133;HTU21D;54052;53.542;49.408;2023-02-01T06:10:26;-4.72;64.07
67133;HTU21D;54052;53.542;49.408;2023-02-01T06:12:53;-4.54;63.54
67133;HTU21D;54052;53.542;49.408;2023-02-01T06:15:20;-4.46;62.82
67133;HTU21D;54052;53.542;49.408;2023-02-01T06:17:47;-4.32;61.91
67133;HTU21D;54052;53.542;49.408;2023-02-01T06:20:14;-4.22;62.08
67133;HTU21D;54052;53.542;49.408;2023-02-01T06:22:41;-4.21;62.49
67133;HTU21D;54052;53.542;49.408;2023-02-01T06:25:10;-4.29;62.24
67133;HTU21D;54052;53.542;49.408;2023-02-01T06:27:36;-4.27;63.14
67133;HTU21D;54052;53.542;49.408;2023-02-01T06:30:04;-4.08;62.77
67133;HTU21D;54052;53.542;49.408;2023-02-01T06:32:30;-3.87;61.48
67133;HTU21D;54052;53.542;49.408;2023-02-01T06:34:57;-3.75;61.71
67133;HTU21D;54052;53.542;49.408;2023-02-01T06:37:24;-3.83;62.18
67133;HTU21D;54052;53.542;49.408;2023-02-01T06:39:51;-3.80;61.75
67133;HTU21D;54052;53.542;49.408;2023-02-01T06:42:18;-3.60;60.95
67133;HTU21D;54052;53.542;49.408;2023-02-01T06:44:44;-3.42;60.89
67133;HTU21D;54052;53.542;49.408;2023-02-01T06:47:10;-3.23;60.14
67133;HTU21D;54052;53.542;49.408;2023-02-01T06:49:37;-3.03;58.81
67133;HTU21D;54052;53.542;49.408;2023-02-01T06:52:04;-3.13;59.00
67133;HTU21D;54052;53.542;49.408;2023-02-01T06:54:30;-3.27;59.68
67133;HTU21D;54052;53.542;49.408;2023-02-01T06:56:59;-3.10;59.54
67133;HTU21D;54052;53.542;49.408;2023-02-01T06:59:26;-2.88;58.56
67133;HTU21D;54052;53.542;49.408;2023-02-01T07:01:52;-2.76;58.48
67133;HTU21D;54052;53.542;49.408;2023-02-01T07:04:18;-2.65;57.55
67133;HTU21D;54052;53.542;49.408;2023-02-01T07:06:44;-2.89;58.87
67133;HTU21D;54052;53.542;49.408;2023-02-01T07:09:11;-3.01;58.68
67133;HTU21D;54052;53.542;49.408;2023-02-01T07:11:39;-2.84;58.31
67133;HTU21D;54052;53.542;49.408;2023-02-01T07:14:10;-2.75;57.72
67133;HTU21D;54052;53.542;49.408;2023-02-01T07:16:36;-2.79;57.32
67133;HTU21D;54052;53.542;49.408;2023-02-01T07:19:03;-2.49;57.88
67133;HTU21D;54052;53.542;49.408;2023-02-01T07:21:29;-2.41;57.54
67133;HTU21D;54052;53.542;49.408;2023-02-01T07:23:55;-2.26;57.28
67133;HTU21D;54052;53.542;49.408;2023-02-01T07:26:22;-1.99;55.39
67133;HTU21D;54052;53.542;49.408;2023-02-01T07:28:48;-1.86;54.52
67133;HTU21D;54052;53.542;49.408;2023-02-01T07:31:16;-1.63;54.23
67133;HTU21D;54052;53.542;49.408;2023-02-01T07:33:45;-1.60;54.09
67133;HTU21D;54052;53.542;49.408;2023-02-01T07:36:13;-1.72;54.54
67133;HTU21D;54052;53.542;49.408;2023-02-01T07:38:40;-1.53;53.79
67133;HTU21D;54052;53.542;49.408;2023-02-01T07:41:06;-1.31;52.78
67133;HTU21D;54052;53.542;49.408;2023-02-01T07:43:34;-1.17;54.17
67133;HTU21D;54052;53.542;49.408;2023-02-01T07:46:01;-1.42;52.34
67133;HTU21D;54052;53.542;49.408;2023-02-01T07:48:28;-1.80;54.36
67133;HTU21D;54052;53.542;49.408;2023-02-01T07:53:29;-1.80;53.32
67133;HTU21D;54052;53.542;49.408;2023-02-01T07:55:56;-1.63;53.81
67133;HTU21D;54052;53.542;49.408;2023-02-01T07:58:24;-1.55;53.41
67133;HTU21D;54052;53.542;49.408;2023-02-01T08:00:51;-1.54;53.65
67133;HTU21D;54052;53.542;49.408;2023-02-01T08:03:36;-1.41;53.40
67133;HTU21D;54052;53.542;49.408;2023-02-01T08:06:03;-1.62;53.32
67133;HTU21D;54052;53.542;49.408;2023-02-01T08:08:29;-1.95;54.76
67133;HTU21D;54052;53.542;49.408;2023-02-01T08:11:04;-1.84;55.32
67133;HTU21D;54052;53.542;49.408;2023-02-01T08:13:31;-1.58;54.96
67133;HTU21D;54052;53.542;49.408;2023-02-01T08:15:59;-1.36;53.69
67133;HTU21D;54052;53.542;49.408;2023-02-01T08:18:26;-1.34;53.72
67133;HTU21D;54052;53.542;49.408;2023-02-01T08:20:53;-1.33;53.35
67133;HTU21D;54052;53.542;49.408;2023-02-01T08:23:20;-1.35;53.72
67133;HTU21D;54052;53.542;49.408;2023-02-01T08:25:47;-1.42;54.53
67133;HTU21D;54052;53.542;49.408;2023-02-01T08:28:14;-1.18;53.33
67133;HTU21D;54052;53.542;49.408;2023-02-01T08:30:40;-1.09;53.78
67133;HTU21D;54052;53.542;49.408;2023-02-01T08:33:08;-0.86;53.20
67133;HTU21D;54052;53.542;49.408;2023-02-01T08:35:36;-0.77;53.56
67133;HTU21D;54052;53.542;49.408;2023-02-01T08:38:02;-0.83;51.97
67133;HTU21D;54052;53.542;49.408;2023-02-01T08:40:29;-0.89;53.04
67133;HTU21D;54052;53.542;49.408;2023-02-01T08:42:56;-0.89;51.69
67133;HTU21D;54052;53.542;49.408;2023-02-01T08:45:24;-0.93;51.68
67133;HTU21D;54052;53.542;49.408;2023-02-01T08:47:55;-1.05;52.36
67133;HTU21D;54052;53.542;49.408;2023-02-01T08:50:22;-0.84;51.98
67133;HTU21D;54052;53.542;49.408;2023-02-01T08:52:49;-0.53;50.74
67133;HTU21D;54052;53.542;49.408;2023-02-01T08:55:16;-0.47;52.11
67133;HTU21D;54052;53.542;49.408;2023-02-01T08:57:42;-0.46;52.29
67133;HTU21D;54052;53.542;49.408;2023-02-01T09:00:13;-0.45;52.07
67133;HTU21D;54052;53.542;49.408;2023-02-01T09:02:39;-0.49;52.01
67133;HTU21D;54052;53.542;49.408;2023-02-01T09:05:06;-0.36;49.35
67133;HTU21D;54052;53.542;49.408;2023-02-01T09:07:33;-0.42;50.40
67133;HTU21D;54052;53.542;49.408;2023-02-01T09:10:00;-0.31;51.65
67133;HTU21D;54052;53.542;49.408;2023-02-01T09:12:28;-0.14;50.51
67133;HTU21D;54052;53.542;49.408;2023-02-01T09:14:58;-0.00;49.44
67133;HTU21D;54052;53.542;49.408;2023-02-01T09:17:29;-0.08;48.86
67133;HTU21D;54052;53.542;49.408;2023-02-01T09:19:55;-0.19;49.13
67133;HTU21D;54052;53.542;49.408;2023-02-01T09:22:21;-0.20;49.53
67133;HTU21D;54052;53.542;49.408;2023-02-01T09:24:48;-0.29;49.53
67133;HTU21D;54052;53.542;49.408;2023-02-01T09:27:14;-0.40;49.93
67133;HTU21D;54052;53.542;49.408;2023-02-01T09:29:40;-0.62;51.22
67133;HTU21D;54052;53.542;49.408;2023-02-01T09:32:07;-0.58;50.27
67133;HTU21D;54052;53.542;49.408;2023-02-01T09:34:33;-0.59;50.98
67133;HTU21D;54052;53.542;49.408;2023-02-01T09:37:00;-0.61;50.85
67133;HTU21D;54052;53.542;49.408;2023-02-01T09:39:26;-0.57;49.85
67133;HTU21D;54052;53.542;49.408;2023-02-01T09:44:38;-0.27;48.76
67133;HTU21D;54052;53.542;49.408;2023-02-01T09:47:19;-0.22;49.39
67133;HTU21D;54052;53.542;49.408;2023-02-01T09:49:56;-0.19;48.63
67133;HTU21D;54052;53.542;49.408;2023-02-01T09:55:40;-0.00;47.73
67133;HTU21D;54052;53.542;49.408;2023-02-01T09:58:14;0.04;47.21
67133;HTU21D;54052;53.542;49.408;2023-02-01T10:00:47;-0.01;47.58
67133;HTU21D;54052;53.542;49.408;2023-02-01T10:03:16;-0.15;46.84
67133;HTU21D;54052;53.542;49.408;2023-02-01T10:08:25;-0.24;48.67
67133;HTU21D;54052;53.542;49.408;2023-02-01T10:11:07;-0.31;48.99
67133;HTU21D;54052;53.542;49.408;2023-02-01T10:14:06;-0.37;48.03
67133;HTU21D;54052;53.542;49.408;2023-02-01T10:16:55;-0.36;48.21
67133;HTU21D;54052;53.542;49.408;2023-02-01T10:19:39;-0.21;48.92
67133;HTU21D;54052;53.542;49.408;2023-02-01T10:22:14;-0.13;48.92
67133;HTU21D;54052;53.542;49.408;2023-02-01T10:27:18;0.02;47.30
67133;HTU21D;54052;53.542;49.408;2023-02-01T10:29:54;0.12;46.13
67133;HTU21D;54052;53.542;49.408;2023-02-01T10:32:23;0.14;47.17
67133;HTU21D;54052;53.542;49.408;2023-02-01T10:34:57;0.07;46.30
67133;HTU21D;54052;53.542;49.408;2023-02-01T10:37:28;0.05;47.53
67133;HTU21D;54052;53.542;49.408;2023-02-01T10:40:11;0.19;46.19
67133;HTU21D;54052;53.542;49.408;2023-02-01T10:42:39;0.14;46.85
67133;HTU21D;54052;53.542;49.408;2023-02-01T10:45:06;-0.01;48.85
67133;HTU21D;54052;53.542;49.408;2023-02-01T10:47:33;0.03;47.47
67133;HTU21D;54052;53.542;49.408;2023-02-01T10:50:13;-0.06;47.38
67133;HTU21D;54052;53.542;49.408;2023-02-01T10:52:44;-0.13;47.60
67133;HTU21D;54052;53.542;49.408;2023-02-01T10:55:38;-0.15;48.95
67133;HTU21D;54052;53.542;49.408;2023-02-01T10:58:07;-0.14;48.45
67133;HTU21D;54052;53.542;49.408;2023-02-01T11:00:43;-0.07;48.89
67133;HTU21D;54052;53.542;49.408;2023-02-01T11:03:40;0.13;47.35
67133;HTU21D;54052;53.542;49.408;2023-02-01T11:08:57;0.47;45.99
67133;HTU21D;54052;53.542;49.408;2023-02-01T11:11:24;0.59;46.02
67133;HTU21D;54052;53.542;49.408;2023-02-01T11:14:00;0.49;46.37
67133;HTU21D;54052;53.542;49.408;2023-02-01T11:16:39;0.35;45.02
67133;HTU21D;54052;53.542;49.408;2023-02-01T11:19:06;0.29;46.34
67133;HTU21D;54052;53.542;49.408;2023-02-01T11:21:34;0.08;47.44
67133;HTU21D;54052;53.542;49.408;2023-02-01T11:24:03;-0.19;47.39
67133;HTU21D;54052;53.542;49.408;2023-02-01T11:26:30;-0.19;46.83
67133;HTU21D;54052;53.542;49.408;2023-02-01T11:29:03;-0.17;46.73
67133;HTU21D;54052;53.542;49.408;2023-02-01T11:31:29;-0.07;46.92
67133;HTU21D;54052;53.542;49.408;2023-02-01T11:34:09;-0.10;47.50
67133;HTU21D;54052;53.542;49.408;2023-02-01T11:36:39;-0.13;46.47
67133;HTU21D;54052;53.542;49.408;2023-02-01T11:41:44;-0.23;48.13
67133;HTU21D;54052;53.542;49.408;2023-02-01T11:44:34;-0.31;47.44
67133;HTU21D;54052;53.542;49.408;2023-02-01T11:47:27;-0.29;47.48
67133;HTU21D;54052;53.542;49.408;2023-02-01T12:11:28;-0.70;50.43
67133;HTU21D;54052;53.542;49.408;2023-02-01T12:27:52;-0.88;51.16
67133;HTU21D;54052;53.542;49.408;2023-02-01T12:30:39;-0.99;51.85
67133;HTU21D;54052;53.542;49.408;2023-02-01T12:38:46;-1.13;51.02
67133;HTU21D;54052;53.542;49.408;2023-02-01T12:49:50;-1.44;52.02
67133;HTU21D;54052;53.542;49.408;2023-02-01T12:52:48;-1.63;53.18
67133;HTU21D;54052;53.542;49.408;2023-02-01T12:55:36;-1.69;52.51
67133;HTU21D;54052;53.542;49.408;2023-02-01T12:58:14;-1.71;52.65
67133;HTU21D;54052;53.542;49.408;2023-02-01T13:00:59;-1.76;52.65
67133;HTU21D;54052;53.542;49.408;2023-02-01T13:06:17;-1.80;51.72
67133;HTU21D;54052;53.542;49.408;2023-02-01T13:08:51;-1.84;52.78
67133;HTU21D;54052;53.542;49.408;2023-02-01T13:11:30;-2.00;54.43
67133;HTU21D;54052;53.542;49.408;2023-02-01T13:14:03;-2.17;53.00
67133;HTU21D;54052;53.542;49.408;2023-02-01T13:19:16;-2.28;53.17
67133;HTU21D;54052;53.542;49.408;2023-02-01T13:21:50;-2.27;53.54
67133;HTU21D;54052;53.542;49.408;2023-02-01T13:24:30;-2.30;53.59
67133;HTU21D;54052;53.542;49.408;2023-02-01T13:26:57;-2.39;54.24
67133;HTU21D;54052;53.542;49.408;2023-02-01T13:29:24;-2.53;54.84
67133;HTU21D;54052;53.542;49.408;2023-02-01T13:32:03;-2.62;56.26
67133;HTU21D;54052;53.542;49.408;2023-02-01T13:40:04;-2.60;56.01
67133;HTU21D;54052;53.542;49.408;2023-02-01T13:45:33;-2.72;55.39
67133;HTU21D;54052;53.542;49.408;2023-02-01T13:48:04;-2.81;55.21
67133;HTU21D;54052;53.542;49.408;2023-02-01T13:50:37;-2.87;56.04
67133;HTU21D;54052;53.542;49.408;2023-02-01T13:55:43;-3.07;56.10
67133;HTU21D;54052;53.542;49.408;2023-02-01T13:58:19;-3.20;56.90
67133;HTU21D;54052;53.542;49.408;2023-02-01T14:00:48;-3.24;56.84
67133;HTU21D;54052;53.542;49.408;2023-02-01T14:03:19;-3.36;57.42
67133;HTU21D;54052;53.542;49.408;2023-02-01T14:08:20;-3.71;58.97
67133;HTU21D;54052;53.542;49.408;2023-02-01T14:10:53;-3.89;60.46
67133;HTU21D;54052;53.542;49.408;2023-02-01T14:13:39;-3.90;59.25
67133;HTU21D;54052;53.542;49.408;2023-02-01T14:26:46;-4.14;59.28
67133;HTU21D;54052;53.542;49.408;2023-02-01T14:37:04;-4.16;59.76
67133;HTU21D;54052;53.542;49.408;2023-02-01T14:39:53;-4.29;60.27
67133;HTU21D;54052;53.542;49.408;2023-02-01T14:47:55;-4.49;60.86
67133;HTU21D;54052;53.542;49.408;2023-02-01T14:50:46;-4.63;60.92
67133;HTU21D;54052;53.542;49.408;2023-02-01T14:53:33;-4.83;60.45
67133;HTU21D;54052;53.542;49.408;2023-02-01T14:56:15;-4.98;60.02
67133;HTU21D;54052;53.542;49.408;2023-02-01T14:59:01;-5.01;60.18
67133;HTU21D;54052;53.542;49.408;2023-02-01T15:01:36;-4.93;59.57
67133;HTU21D;54052;53.542;49.408;2023-02-01T15:04:13;-4.83;58.70
67133;HTU21D;54052;53.542;49.408;2023-02-01T15:06:45;-4.71;58.58
67133;HTU21D;54052;53.542;49.408;2023-02-01T15:09:29;-4.66;58.24
67133;HTU21D;54052;53.542;49.408;2023-02-01T15:11:58;-4.65;58.23
67133;HTU21D;54052;53.542;49.408;2023-02-01T15:14:28;-4.58;58.29
67133;HTU21D;54052;53.542;49.408;2023-02-01T15:16:55;-4.51;58.43
67133;HTU21D;54052;53.542;49.408;2023-02-01T15:19:23;-4.54;58.54
67133;HTU21D;54052;53.542;49.408;2023-02-01T15:21:53;-4.57;58.51
67133;HTU21D;54052;53.542;49.408;2023-02-01T15:24:22;-4.54;58.65
67133;HTU21D;54052;53.542;49.408;2023-02-01T15:26:49;-4.49;58.94
67133;HTU21D;54052;53.542;49.408;2023-02-01T15:29:16;-4.54;59.06
67133;HTU21D;54052;53.542;49.408;2023-02-01T15:31:49;-4.61;58.58
67133;HTU21D;54052;53.542;49.408;2023-02-01T15:34:16;-4.59;58.38
67133;HTU21D;54052;53.542;49.408;2023-02-01T15:36:43;-4.58;59.32
67133;HTU21D;54052;53.542;49.408;2023-02-01T15:41:48;-4.74;58.60
67133;HTU21D;54052;53.542;49.408;2023-02-01T15:44:19;-4.80;59.38
67133;HTU21D;54052;53.542;49.408;2023-02-01T15:46:48;-4.87;59.14
67133;HTU21D;54052;53.542;49.408;2023-02-01T15:49:27;-4.91;59.22
67133;HTU21D;54052;53.542;49.408;2023-02-01T15:51:56;-4.97;59.53
67133;HTU21D;54052;53.542;49.408;2023-02-01T15:54:26;-5.13;60.70
67133;HTU21D;54052;53.542;49.408;2023-02-01T15:56:55;-5.18;60.44
67133;HTU21D;54052;53.542;49.408;2023-02-01T15:59:32;-5.24;61.09
67133;HTU21D;54052;53.542;49.408;2023-02-01T16:02:01;-5.31;61.73
67133;HTU21D;54052;53.542;49.408;2023-02-01T16:04:29;-5.34;61.04
67133;HTU21D;54052;53.542;49.408;2023-02-01T16:07:00;-5.49;61.08
67133;HTU21D;54052;53.542;49.408;2023-02-01T16:09:48;-5.59;62.76
67133;HTU21D;54052;53.542;49.408;2023-02-01T16:12:30;-5.59;61.92
67133;HTU21D;54052;53.542;49.408;2023-02-01T16:14:57;-5.60;62.74
67133;HTU21D;54052;53.542;49.408;2023-02-01T16:17:24;-5.56;61.86
67133;HTU21D;54052;53.542;49.408;2023-02-01T16:19:50;-5.38;60.61
67133;HTU21D;54052;53.542;49.408;2023-02-01T16:22:17;-5.18;60.35
67133;HTU21D;54052;53.542;49.408;2023-02-01T16:24:43;-5.14;59.50
67133;HTU21D;54052;53.542;49.408;2023-02-01T16:27:09;-5.15;59.83
67133;HTU21D;54052;53.542;49.408;2023-02-01T16:29:36;-5.17;59.23
67133;HTU21D;54052;53.542;49.408;2023-02-01T16:32:02;-5.24;59.45
67133;HTU21D;54052;53.542;49.408;2023-02-01T16:34:29;-5.27;59.64
67133;HTU21D;54052;53.542;49.408;2023-02-01T16:36:56;-5.30;59.44
67133;HTU21D;54052;53.542;49.408;2023-02-01T16:39:23;-5.35;59.36
67133;HTU21D;54052;53.542;49.408;2023-02-01T16:41:50;-5.38;59.99
67133;HTU21D;54052;53.542;49.408;2023-02-01T16:44:16;-5.47;59.53
67133;HTU21D;54052;53.542;49.408;2023-02-01T16:46:44;-5.53;59.70
67133;HTU21D;54052;53.542;49.408;2023-02-01T16:49:25;-5.60;60.85
67133;HTU21D;54052;53.542;49.408;2023-02-01T16:51:54;-5.70;62.80
67133;HTU21D;54052;53.542;49.408;2023-02-01T16:54:22;-5.86;62.02
67133;HTU21D;54052;53.542;49.408;2023-02-01T16:56:49;-5.96;62.95
67133;HTU21D;54052;53.542;49.408;2023-02-01T16:59:15;-5.91;62.01
67133;HTU21D;54052;53.542;49.408;2023-02-01T17:01:42;-5.83;61.86
67133;HTU21D;54052;53.542;49.408;2023-02-01T17:04:11;-5.87;61.92
67133;HTU21D;54052;53.542;49.408;2023-02-01T17:06:38;-5.90;62.09
67133;HTU21D;54052;53.542;49.408;2023-02-01T17:09:05;-5.96;62.93
67133;HTU21D;54052;53.542;49.408;2023-02-01T17:11:32;-6.07;62.97
67133;HTU21D;54052;53.542;49.408;2023-02-01T17:14:15;-6.02;61.76
67133;HTU21D;54052;53.542;49.408;2023-02-01T17:16:41;-5.93;61.44
67133;HTU21D;54052;53.542;49.408;2023-02-01T17:19:16;-6.03;62.46
67133;HTU21D;54052;53.542;49.408;2023-02-01T17:21:57;-6.11;61.58
67133;HTU21D;54052;53.542;49.408;2023-02-01T17:24:27;-6.13;62.27
67133;HTU21D;54052;53.542;49.408;2023-02-01T17:26:54;-6.16;61.90
67133;HTU21D;54052;53.542;49.408;2023-02-01T17:29:20;-6.13;61.50
67133;HTU21D;54052;53.542;49.408;2023-02-01T17:31:50;-6.22;61.95
67133;HTU21D;54052;53.542;49.408;2023-02-01T17:34:17;-6.27;61.50
67133;HTU21D;54052;53.542;49.408;2023-02-01T17:36:46;-6.34;61.47
67133;HTU21D;54052;53.542;49.408;2023-02-01T17:39:14;-6.42;61.28
67133;HTU21D;54052;53.542;49.408;2023-02-01T17:42:01;-6.43;61.04
67133;HTU21D;54052;53.542;49.408;2023-02-01T17:44:28;-6.47;62.44
67133;HTU21D;54052;53.542;49.408;2023-02-01T17:46:54;-6.56;62.03
67133;HTU21D;54052;53.542;49.408;2023-02-01T17:49:22;-6.52;61.39
67133;HTU21D;54052;53.542;49.408;2023-02-01T17:51:49;-6.39;60.86
67133;HTU21D;54052;53.542;49.408;2023-02-01T17:54:15;-6.44;59.92
67133;HTU21D;54052;53.542;49.408;2023-02-01T17:56:43;-6.44;60.42